createdAt,value
2019-05-23T00:00:32.349Z,0.00
2019-05-23T00:01:32.351Z,0.00
2019-05-23T00:02:32.327Z,0.00
2019-05-23T00:03:32.311Z,0.00
2019-05-23T00:04:32.317Z,0.00
2019-05-23T00:05:32.306Z,0.00
2019-05-23T00:06:32.314Z,0.00
2019-05-23T00:07:32.298Z,0.00
2019-05-23T00:08:32.260Z,0.00
2019-05-23T00:09:32.247Z,0.00
2019-05-23T00:10:32.248Z,0.00
2019-05-23T00:11:32.255Z,0.00
2019-05-23T00:12:32.218Z,0.00
2019-05-23T00:13:32.217Z,0.00
2019-05-23T00:14:32.191Z,0.00
2019-05-23T00:15:32.187Z,0.00
2019-05-23T00:16:32.207Z,0.00
2019-05-23T00:17:32.179Z,0.00
2019-05-23T00:18:32.154Z,0.00
2019-05-23T00:19:32.154Z,0.00
2019-05-23T00:20:32.118Z,0.00
2019-05-23T00:21:32.114Z,0.00
2019-05-23T00:22:32.124Z,0.00
2019-05-23T00:23:32.091Z,0.00
2019-05-23T00:24:32.100Z,0.00
2019-05-23T00:25:32.077Z,0.00
2019-05-23T00:26:32.056Z,0.00
2019-05-23T00:27:32.058Z,0.00
2019-05-23T00:28:32.055Z,0.00
2019-05-23T00:29:32.038Z,0.00
2019-05-23T00:30:32.025Z,0.00
2019-05-23T00:31:32.008Z,0.00
2019-05-23T00:32:32.015Z,0.00
2019-05-23T00:33:31.986Z,0.00
2019-05-23T00:34:31.987Z,0.00
2019-05-23T00:35:31.959Z,0.00
2019-05-23T00:36:31.970Z,0.00
2019-05-23T00:37:31.944Z,0.00
2019-05-23T00:38:31.968Z,0.00
2019-05-23T00:39:31.933Z,0.00
2019-05-23T00:40:31.904Z,0.00
2019-05-23T00:41:31.890Z,0.00
2019-05-23T00:42:31.889Z,0.00
2019-05-23T00:43:31.896Z,0.00
2019-05-23T00:44:31.864Z,0.00
2019-05-23T00:45:31.848Z,0.00
2019-05-23T00:46:31.836Z,0.00
2019-05-23T00:47:31.883Z,0.00
2019-05-23T00:48:31.823Z,0.00
2019-05-23T00:49:31.820Z,0.00
2019-05-23T00:50:31.839Z,0.00
2019-05-23T00:51:31.801Z,0.00
2019-05-23T00:52:31.803Z,0.00
2019-05-23T00:53:31.764Z,0.00
2019-05-23T00:54:31.748Z,0.00
2019-05-23T00:55:31.740Z,0.00
2019-05-23T00:56:31.728Z,0.00
2019-05-23T00:57:31.733Z,0.00
2019-05-23T00:58:31.710Z,0.00
2019-05-23T00:59:31.693Z,0.00
2019-05-23T01:00:31.685Z,0.00
2019-05-23T01:01:31.678Z,0.00
2019-05-23T01:02:31.671Z,0.00
2019-05-23T01:03:31.673Z,0.00
2019-05-23T01:04:31.633Z,0.00
2019-05-23T01:05:31.628Z,0.00
2019-05-23T01:06:31.617Z,0.00
2019-05-23T01:07:31.595Z,0.00
2019-05-23T01:08:31.605Z,0.00
2019-05-23T01:09:31.591Z,0.00
2019-05-23T01:10:31.579Z,0.00
2019-05-23T01:11:31.569Z,0.00
2019-05-23T01:12:31.546Z,0.00
2019-05-23T01:13:31.567Z,0.00
2019-05-23T01:14:31.540Z,0.00
2019-05-23T01:15:31.517Z,0.00
2019-05-23T01:16:31.501Z,0.00
2019-05-23T01:17:31.490Z,0.00
2019-05-23T01:18:31.509Z,0.00
2019-05-23T01:19:31.490Z,0.00
2019-05-23T01:20:31.465Z,0.00
2019-05-23T01:21:31.455Z,0.00
2019-05-23T01:22:31.438Z,0.00
2019-05-23T01:23:31.431Z,0.00
2019-05-23T01:24:31.428Z,0.00
2019-05-23T01:25:31.409Z,0.00
2019-05-23T01:26:31.390Z,0.00
2019-05-23T01:27:31.402Z,0.00
2019-05-23T01:28:31.377Z,0.00
2019-05-23T01:29:37.766Z,0.00
2019-05-23T01:30:32.339Z,0.00
2019-05-23T01:31:31.342Z,0.00
2019-05-23T01:32:31.341Z,0.00
2019-05-23T01:33:31.322Z,0.00
2019-05-23T01:34:31.342Z,0.00
2019-05-23T01:35:31.379Z,0.00
2019-05-23T01:36:31.332Z,0.00
2019-05-23T01:37:31.278Z,0.00
2019-05-23T01:38:31.271Z,0.00
2019-05-23T01:39:31.238Z,0.00
2019-05-23T01:40:31.255Z,0.00
2019-05-23T01:41:31.237Z,0.00
2019-05-23T01:42:31.240Z,0.00
2019-05-23T01:43:31.212Z,0.00
2019-05-23T01:44:31.200Z,0.00
2019-05-23T01:45:31.208Z,0.00
2019-05-23T01:46:31.173Z,0.00
2019-05-23T01:47:31.174Z,0.00
2019-05-23T01:48:31.153Z,0.00
2019-05-23T01:49:31.136Z,0.00
2019-05-23T01:50:31.124Z,0.00
2019-05-23T01:51:31.118Z,0.00
2019-05-23T01:52:31.104Z,0.00
2019-05-23T01:53:31.095Z,0.00
2019-05-23T01:54:31.094Z,0.00
2019-05-23T01:55:31.066Z,0.00
2019-05-23T01:56:31.082Z,0.00
2019-05-23T01:57:31.035Z,0.00
2019-05-23T01:58:31.051Z,0.00
2019-05-23T01:59:31.019Z,0.00
2019-05-23T02:00:31.031Z,0.00
2019-05-23T02:01:31.039Z,0.00
2019-05-23T02:02:30.998Z,0.00
2019-05-23T02:03:30.987Z,0.00
2019-05-23T02:04:30.976Z,0.00
2019-05-23T02:05:30.979Z,0.00
2019-05-23T02:06:30.950Z,0.00
2019-05-23T02:07:30.944Z,0.00
2019-05-23T02:08:30.921Z,0.00
2019-05-23T02:09:30.933Z,0.00
2019-05-23T02:10:30.903Z,0.00
2019-05-23T02:11:30.887Z,0.00
2019-05-23T02:12:30.912Z,0.00
2019-05-23T02:13:30.885Z,0.00
2019-05-23T02:14:30.867Z,0.00
2019-05-23T02:15:30.857Z,0.00
2019-05-23T02:16:30.844Z,0.00
2019-05-23T02:17:30.834Z,0.00
2019-05-23T02:18:30.815Z,0.00
2019-05-23T02:19:30.814Z,0.00
2019-05-23T02:20:30.787Z,0.00
2019-05-23T02:21:30.782Z,4.00
2019-05-23T02:22:30.794Z,4.00
2019-05-23T02:23:30.769Z,4.00
2019-05-23T02:24:30.756Z,0.00
2019-05-23T02:25:30.739Z,4.00
2019-05-23T02:26:30.740Z,4.00
2019-05-23T02:27:30.719Z,8.00
2019-05-23T02:28:30.727Z,4.00
2019-05-23T02:29:30.718Z,8.00
2019-05-23T02:30:34.768Z,4.00
2019-05-23T02:31:31.675Z,8.00
2019-05-23T02:32:30.670Z,8.00
2019-05-23T02:33:30.672Z,12.00
2019-05-23T02:34:30.642Z,12.00
2019-05-23T02:35:30.623Z,12.00
2019-05-23T02:36:30.630Z,16.00
2019-05-23T02:37:30.613Z,16.00
2019-05-23T02:38:30.618Z,20.00
2019-05-23T02:39:30.586Z,24.00
2019-05-23T02:40:30.586Z,24.00
2019-05-23T02:41:30.559Z,28.00
2019-05-23T02:42:30.553Z,28.00
2019-05-23T02:43:30.532Z,36.00
2019-05-23T02:44:30.567Z,40.00
2019-05-23T02:45:30.518Z,48.00
2019-05-23T02:46:30.540Z,52.00
2019-05-23T02:47:30.500Z,56.00
2019-05-23T02:48:30.474Z,64.00
2019-05-23T02:49:30.484Z,72.00
2019-05-23T02:50:30.465Z,76.00
2019-05-23T02:51:30.461Z,84.00
2019-05-23T02:52:30.432Z,92.00
2019-05-23T02:53:30.430Z,92.00
2019-05-23T02:54:30.431Z,100.00
2019-05-23T02:55:30.396Z,104.00
2019-05-23T02:56:30.404Z,112.00
2019-05-23T02:57:30.405Z,120.00
2019-05-23T02:58:30.376Z,128.00
2019-05-23T02:59:30.377Z,136.00
2019-05-23T03:00:30.341Z,148.00
2019-05-23T03:01:30.341Z,156.00
2019-05-23T03:02:30.324Z,172.00
2019-05-23T03:03:30.356Z,180.00
2019-05-23T03:04:30.315Z,192.00
2019-05-23T03:05:30.323Z,204.00
2019-05-23T03:06:30.283Z,216.00
2019-05-23T03:07:30.277Z,228.00
2019-05-23T03:08:30.271Z,244.00
2019-05-23T03:09:30.268Z,260.00
2019-05-23T03:10:30.248Z,280.00
2019-05-23T03:11:30.225Z,296.00
2019-05-23T03:12:30.215Z,312.00
2019-05-23T03:13:30.207Z,332.00
2019-05-23T03:14:30.191Z,344.00
2019-05-23T03:15:30.209Z,364.00
2019-05-23T03:16:30.185Z,380.00
2019-05-23T03:17:30.169Z,400.00
2019-05-23T03:18:34.452Z,420.00
2019-05-23T03:19:30.158Z,440.00
2019-05-23T03:20:30.138Z,460.00
2019-05-23T03:21:30.140Z,484.00
2019-05-23T03:22:30.116Z,504.00
2019-05-23T03:23:30.099Z,528.00
2019-05-23T03:24:30.090Z,552.00
2019-05-23T03:25:30.072Z,580.00
2019-05-23T03:26:30.084Z,600.00
2019-05-23T03:27:30.052Z,620.00
2019-05-23T03:28:30.053Z,640.00
2019-05-23T03:29:30.038Z,656.00
2019-05-23T03:30:30.049Z,680.00
2019-05-23T03:31:32.238Z,704.00
2019-05-23T03:32:37.412Z,736.00
2019-05-23T03:33:30.980Z,768.00
2019-05-23T03:34:29.975Z,792.00
2019-05-23T03:35:30.139Z,812.00
2019-05-23T03:36:29.975Z,840.00
2019-05-23T03:37:29.948Z,868.00
2019-05-23T03:38:29.925Z,904.00
2019-05-23T03:39:29.922Z,944.00
2019-05-23T03:40:29.932Z,976.00
2019-05-23T03:41:29.955Z,1012.00
2019-05-23T03:42:29.894Z,1040.00
2019-05-23T03:43:29.891Z,1068.00
2019-05-23T03:44:29.863Z,1100.00
2019-05-23T03:45:29.847Z,1136.00
2019-05-23T03:46:29.866Z,1188.00
2019-05-23T03:47:29.840Z,1240.00
2019-05-23T03:48:29.826Z,1272.00
2019-05-23T03:49:29.829Z,1288.00
2019-05-23T03:50:29.816Z,1300.00
2019-05-23T03:51:29.801Z,1320.00
2019-05-23T03:52:29.800Z,1336.00
2019-05-23T03:53:29.759Z,1360.00
2019-05-23T03:54:29.762Z,1380.00
2019-05-23T03:55:29.748Z,1408.00
2019-05-23T03:56:29.740Z,1440.00
2019-05-23T03:57:29.730Z,1484.00
2019-05-23T03:58:29.730Z,1520.00
2019-05-23T03:59:29.699Z,1540.00
2019-05-23T04:00:29.719Z,1540.00
2019-05-23T04:01:46.171Z,1524.00
2019-05-23T04:02:30.681Z,1520.00
2019-05-23T04:03:29.785Z,1516.00
2019-05-23T04:04:29.661Z,1512.00
2019-05-23T04:05:29.635Z,1512.00
2019-05-23T04:06:29.622Z,1516.00
2019-05-23T04:07:29.626Z,1528.00
2019-05-23T04:08:29.617Z,1540.00
2019-05-23T04:09:29.619Z,1556.00
2019-05-23T04:10:29.570Z,1576.00
2019-05-23T04:11:29.565Z,1596.00
2019-05-23T04:12:29.566Z,1616.00
2019-05-23T04:13:29.586Z,1640.00
2019-05-23T04:14:29.542Z,1664.00
2019-05-23T04:15:29.530Z,1696.00
2019-05-23T04:16:30.582Z,1720.00
2019-05-23T04:17:29.507Z,1740.00
2019-05-23T04:18:29.512Z,1772.00
2019-05-23T04:19:29.482Z,1796.00
2019-05-23T04:20:29.476Z,1820.00
2019-05-23T04:21:29.465Z,1844.00
2019-05-23T04:22:29.451Z,1868.00
2019-05-23T04:23:29.465Z,1900.00
2019-05-23T04:24:29.449Z,1928.00
2019-05-23T04:25:29.434Z,1960.00
2019-05-23T04:26:29.401Z,2000.00
2019-05-23T04:27:29.393Z,2044.00
2019-05-23T04:28:29.387Z,2092.00
2019-05-23T04:29:29.388Z,2140.00
2019-05-23T04:30:29.362Z,2188.00
2019-05-23T04:31:29.361Z,2248.00
2019-05-23T04:32:29.327Z,2332.00
2019-05-23T04:33:29.313Z,2384.00
2019-05-23T04:34:29.327Z,2504.00
2019-05-23T04:35:29.315Z,2592.00
2019-05-23T04:36:29.293Z,2828.00
2019-05-23T04:37:29.286Z,2724.00
2019-05-23T04:38:29.274Z,2692.00
2019-05-23T04:39:29.284Z,2860.00
2019-05-23T04:40:29.252Z,3096.00
2019-05-23T04:41:29.269Z,3552.00
2019-05-23T04:42:29.244Z,4120.00
2019-05-23T04:43:29.232Z,5116.00
2019-05-23T04:44:29.232Z,4872.00
2019-05-23T04:45:29.198Z,4932.00
2019-05-23T04:46:29.183Z,4984.00
2019-05-23T04:47:29.160Z,6240.00
2019-05-23T04:48:29.171Z,5472.00
2019-05-23T04:49:29.152Z,5096.00
2019-05-23T04:50:29.171Z,5180.00
2019-05-23T04:51:29.136Z,5720.00
2019-05-23T04:52:29.119Z,6048.00
2019-05-23T04:53:29.095Z,5496.00
2019-05-23T04:54:29.108Z,5704.00
2019-05-23T04:55:29.111Z,7096.00
2019-05-23T04:56:29.090Z,10188.00
2019-05-23T04:57:29.088Z,13028.00
2019-05-23T04:58:29.050Z,11104.00
2019-05-23T04:59:29.039Z,10736.00
2019-05-23T05:00:29.071Z,13452.00
2019-05-23T05:01:29.024Z,15328.00
2019-05-23T05:02:29.016Z,17120.00
2019-05-23T05:03:29.003Z,16512.00
2019-05-23T05:04:28.997Z,17088.00
2019-05-23T05:05:28.999Z,16608.00
2019-05-23T05:06:28.954Z,12920.00
2019-05-23T05:07:28.954Z,13056.00
2019-05-23T05:08:28.960Z,13200.00
2019-05-23T05:09:28.938Z,14880.00
2019-05-23T05:10:28.933Z,15680.00
2019-05-23T05:11:30.568Z,15840.00
2019-05-23T05:12:28.918Z,5936.00
2019-05-23T05:13:28.880Z,20576.00
2019-05-23T05:14:28.878Z,12572.00
2019-05-23T05:15:28.890Z,7412.00
2019-05-23T05:16:28.865Z,7188.00
2019-05-23T05:17:28.858Z,7264.00
2019-05-23T05:18:28.842Z,7308.00
2019-05-23T05:19:28.823Z,7272.00
2019-05-23T05:20:28.846Z,7360.00
2019-05-23T05:21:28.821Z,7296.00
2019-05-23T05:22:28.820Z,7316.00
2019-05-23T05:23:28.792Z,7708.00
2019-05-23T05:24:29.442Z,8612.00
2019-05-23T05:25:28.763Z,9060.00
2019-05-23T05:26:28.748Z,9360.00
2019-05-23T05:27:28.736Z,10496.00
2019-05-23T05:28:28.727Z,10508.00
2019-05-23T05:29:28.719Z,8980.00
2019-05-23T05:30:28.696Z,7968.00
2019-05-23T05:31:28.740Z,7848.00
2019-05-23T05:32:43.430Z,7964.00
2019-05-23T05:33:29.689Z,8120.00
2019-05-23T05:34:28.659Z,8256.00
2019-05-23T05:35:28.685Z,8088.00
2019-05-23T05:36:28.622Z,10944.00
2019-05-23T05:37:28.626Z,11616.00
2019-05-23T05:38:29.316Z,11544.00
2019-05-23T05:39:28.593Z,11148.00
2019-05-23T05:40:28.615Z,11080.00
2019-05-23T05:41:28.580Z,11140.00
2019-05-23T05:42:28.585Z,11144.00
2019-05-23T05:43:28.557Z,11416.00
2019-05-23T05:44:28.568Z,11536.00
2019-05-23T05:45:28.528Z,11476.00
2019-05-23T05:46:28.540Z,11420.00
2019-05-23T05:47:28.521Z,11316.00
2019-05-23T05:48:29.172Z,11460.00
2019-05-23T05:49:28.484Z,11744.00
2019-05-23T05:50:28.470Z,12020.00
2019-05-23T05:51:28.473Z,11916.00
2019-05-23T05:52:28.465Z,12092.00
2019-05-23T05:53:28.474Z,12692.00
2019-05-23T05:54:29.033Z,12676.00
2019-05-23T05:55:28.443Z,12436.00
2019-05-23T05:56:28.402Z,12408.00
2019-05-23T05:57:28.388Z,12396.00
2019-05-23T05:58:28.398Z,12764.00
2019-05-23T05:59:28.383Z,13164.00
2019-05-23T06:00:28.374Z,12948.00
2019-05-23T06:01:34.002Z,13352.00
2019-05-23T06:02:29.331Z,13936.00
2019-05-23T06:03:28.338Z,13832.00
2019-05-23T06:04:28.325Z,13764.00
2019-05-23T06:05:28.315Z,13984.00
2019-05-23T06:06:28.334Z,22336.00
2019-05-23T06:07:28.299Z,60864.00
2019-05-23T06:08:28.291Z,73376.00
2019-05-23T06:09:28.278Z,59264.00
2019-05-23T06:10:28.251Z,54080.00
2019-05-23T06:11:28.240Z,50880.00
2019-05-23T06:12:28.247Z,52192.00
2019-05-23T06:13:28.239Z,51744.00
2019-05-23T06:14:28.211Z,49984.00
2019-05-23T06:15:28.208Z,50144.00
2019-05-23T06:16:28.198Z,50400.00
2019-05-23T06:17:28.174Z,48672.00
2019-05-23T06:18:28.186Z,46912.00
2019-05-23T06:19:28.178Z,48256.00
2019-05-23T06:20:28.152Z,48064.00
2019-05-23T06:21:28.145Z,48096.00
2019-05-23T06:22:28.137Z,49984.00
2019-05-23T06:23:28.126Z,49440.00
2019-05-23T06:24:41.861Z,48800.00
2019-05-23T06:25:29.100Z,47584.00
2019-05-23T06:26:28.088Z,46976.00
2019-05-23T06:27:28.075Z,49024.00
2019-05-23T06:28:28.074Z,49632.00
2019-05-23T06:29:28.043Z,52256.00
2019-05-23T06:30:28.044Z,54144.00
2019-05-23T06:31:28.016Z,52896.00
2019-05-23T06:32:28.034Z,55904.00
2019-05-23T06:33:28.008Z,56928.00
2019-05-23T06:34:28.064Z,57056.00
2019-05-23T06:35:27.978Z,55200.00
2019-05-23T06:36:27.981Z,54176.00
2019-05-23T06:37:27.962Z,56288.00
2019-05-23T06:38:27.967Z,57664.00
2019-05-23T06:39:27.982Z,59328.00
2019-05-23T06:40:27.920Z,60512.00
2019-05-23T06:41:27.917Z,58368.00
2019-05-23T06:42:27.916Z,56608.00
2019-05-23T06:43:27.898Z,58624.00
2019-05-23T06:44:27.903Z,59712.00
2019-05-23T06:45:27.879Z,56640.00
2019-05-23T06:46:27.877Z,58208.00
2019-05-23T06:47:28.483Z,60992.00
2019-05-23T06:48:27.893Z,63456.00
2019-05-23T06:49:27.860Z,64736.00
2019-05-23T06:50:27.840Z,63520.00
2019-05-23T06:51:27.826Z,59584.00
2019-05-23T06:52:27.803Z,56992.00
2019-05-23T06:53:27.793Z,58592.00
2019-05-23T06:54:27.801Z,60576.00
2019-05-23T06:55:27.779Z,62240.00
2019-05-23T06:56:27.769Z,61280.00
2019-05-23T06:57:27.761Z,63424.00
2019-05-23T06:58:27.778Z,63136.00
2019-05-23T06:59:27.736Z,61056.00
2019-05-23T07:00:27.811Z,56000.00
2019-05-23T07:01:27.706Z,60480.00
2019-05-23T07:02:31.568Z,57344.00
2019-05-23T07:03:41.740Z,57632.00
2019-05-23T07:04:28.692Z,55680.00
2019-05-23T07:05:27.710Z,60832.00
2019-05-23T07:06:27.681Z,61344.00
2019-05-23T07:07:27.646Z,66208.00
2019-05-23T07:08:27.649Z,71424.00
2019-05-23T07:09:27.631Z,69632.00
2019-05-23T07:10:27.608Z,69024.00
2019-05-23T07:11:27.617Z,69600.00
2019-05-23T07:12:27.622Z,68384.00
2019-05-23T07:13:27.589Z,68992.00
2019-05-23T07:14:27.556Z,71136.00
2019-05-23T07:15:27.546Z,70976.00
2019-05-23T07:16:27.567Z,71232.00
2019-05-23T07:17:27.546Z,71136.00
2019-05-23T07:18:27.535Z,74848.00
2019-05-23T07:19:27.524Z,73184.00
2019-05-23T07:20:27.499Z,64832.00
2019-05-23T07:21:27.534Z,59488.00
2019-05-23T07:22:27.493Z,63616.00
2019-05-23T07:23:27.481Z,68928.00
2019-05-23T07:24:27.460Z,72864.00
2019-05-23T07:25:27.465Z,71392.00
2019-05-23T07:26:27.470Z,68736.00
2019-05-23T07:27:27.446Z,55392.00
2019-05-23T07:28:27.425Z,68224.00
2019-05-23T07:29:27.418Z,69568.00
2019-05-23T07:30:27.610Z,69248.00
2019-05-23T07:31:27.400Z,71168.00
2019-05-23T07:32:27.392Z,75840.00
2019-05-23T07:33:27.376Z,76768.00
2019-05-23T07:34:27.361Z,74208.00
2019-05-23T07:35:27.357Z,78592.00
2019-05-23T07:36:27.345Z,74112.00
2019-05-23T07:37:27.348Z,72000.00
2019-05-23T07:38:27.317Z,75520.00
2019-05-23T07:39:27.313Z,78912.00
2019-05-23T07:40:27.320Z,79264.00
2019-05-23T07:41:27.292Z,79296.00
2019-05-23T07:42:27.311Z,81952.00
2019-05-23T07:43:27.278Z,18240.00
2019-05-23T07:44:27.256Z,78272.00
2019-05-23T07:45:27.239Z,75264.00
2019-05-23T07:46:27.237Z,72576.00
2019-05-23T07:47:27.233Z,76864.00
2019-05-23T07:48:27.257Z,83456.00
2019-05-23T07:49:27.215Z,75904.00
2019-05-23T07:50:27.218Z,78944.00
2019-05-23T07:51:29.741Z,80608.00
2019-05-23T07:52:27.171Z,84960.00
2019-05-23T07:53:27.192Z,70816.00
2019-05-23T07:54:27.174Z,42240.00
2019-05-23T07:55:27.157Z,39328.00
2019-05-23T07:56:27.134Z,79840.00
2019-05-23T07:57:27.118Z,83136.00
2019-05-23T07:58:27.112Z,80032.00
2019-05-23T07:59:27.126Z,71264.00
2019-05-23T08:00:27.095Z,65760.00
2019-05-23T08:01:27.107Z,74752.00
2019-05-23T08:02:27.087Z,81888.00
2019-05-23T08:03:27.066Z,85568.00
2019-05-23T08:04:27.069Z,87072.00
2019-05-23T08:05:27.054Z,37728.00
2019-05-23T08:06:27.026Z,86112.00
2019-05-23T08:07:27.031Z,87008.00
2019-05-23T08:08:27.025Z,94144.00
2019-05-23T08:09:27.006Z,81568.00
2019-05-23T08:10:33.797Z,76608.00
2019-05-23T08:11:27.985Z,37856.00
2019-05-23T08:12:26.994Z,84800.00
2019-05-23T08:13:26.970Z,86016.00
2019-05-23T08:14:26.964Z,96704.00
2019-05-23T08:15:26.973Z,28736.00
2019-05-23T08:16:26.947Z,24480.00
2019-05-23T08:17:26.926Z,47232.00
2019-05-23T08:18:26.918Z,93216.00
2019-05-23T08:19:26.899Z,95552.00
2019-05-23T08:20:26.944Z,100032.00
2019-05-23T08:21:26.894Z,86656.00
2019-05-23T08:22:26.883Z,101664.00
2019-05-23T08:23:26.868Z,25120.00
2019-05-23T08:24:26.871Z,93824.00
2019-05-23T08:25:26.845Z,95552.00
2019-05-23T08:26:26.852Z,88736.00
2019-05-23T08:27:26.836Z,86016.00
2019-05-23T08:28:26.813Z,88352.00
2019-05-23T08:29:27.090Z,91232.00
2019-05-23T08:30:26.826Z,96064.00
2019-05-23T08:31:26.784Z,97440.00
2019-05-23T08:32:26.786Z,100000.00
2019-05-23T08:33:26.785Z,100768.00
2019-05-23T08:34:40.910Z,100544.00
2019-05-23T08:35:27.767Z,103488.00
2019-05-23T08:36:26.741Z,106048.00
2019-05-23T08:37:26.717Z,105728.00
2019-05-23T08:38:26.727Z,110304.00
2019-05-23T08:39:26.715Z,109536.00
2019-05-23T08:40:26.705Z,107072.00
2019-05-23T08:41:26.704Z,109568.00
2019-05-23T08:42:26.681Z,96448.00
2019-05-23T08:43:26.677Z,107200.00
2019-05-23T08:44:26.671Z,109152.00
2019-05-23T08:45:26.664Z,103264.00
2019-05-23T08:46:26.671Z,99936.00
2019-05-23T08:47:26.645Z,96480.00
2019-05-23T08:48:26.624Z,92896.00
2019-05-23T08:49:26.619Z,90272.00
2019-05-23T08:50:26.607Z,94080.00
2019-05-23T08:51:26.614Z,96416.00
2019-05-23T08:52:26.604Z,92032.00
2019-05-23T08:53:26.586Z,99584.00
2019-05-23T08:54:26.576Z,98528.00
2019-05-23T08:55:26.592Z,99744.00
2019-05-23T08:56:26.560Z,98432.00
2019-05-23T08:57:26.560Z,99072.00
2019-05-23T08:58:26.543Z,99328.00
2019-05-23T08:59:26.530Z,100512.00
2019-05-23T09:00:26.522Z,104704.00
2019-05-23T09:01:26.499Z,106272.00
2019-05-23T09:02:26.521Z,109728.00
2019-05-23T09:03:26.484Z,111264.00
2019-05-23T09:04:26.495Z,108032.00
2019-05-23T09:05:26.472Z,102048.00
2019-05-23T09:06:26.467Z,100128.00
2019-05-23T09:07:26.480Z,95200.00
2019-05-23T09:08:26.458Z,97664.00
2019-05-23T09:09:29.998Z,93376.00
2019-05-23T09:10:26.417Z,96544.00
2019-05-23T09:11:26.423Z,99744.00
2019-05-23T09:12:26.410Z,96640.00
2019-05-23T09:13:26.429Z,96384.00
2019-05-23T09:14:26.383Z,98080.00
2019-05-23T09:15:26.385Z,99488.00
2019-05-23T09:16:26.370Z,98208.00
2019-05-23T09:17:26.363Z,98016.00
2019-05-23T09:18:26.373Z,93856.00
2019-05-23T09:19:26.349Z,95520.00
2019-05-23T09:20:26.325Z,86272.00
2019-05-23T09:21:26.323Z,103360.00
2019-05-23T09:22:26.312Z,105344.00
2019-05-23T09:23:26.349Z,104416.00
2019-05-23T09:24:26.306Z,101568.00
2019-05-23T09:25:26.291Z,100672.00
2019-05-23T09:26:26.286Z,98304.00
2019-05-23T09:27:26.274Z,96768.00
2019-05-23T09:28:26.272Z,90528.00
2019-05-23T09:29:26.250Z,94368.00
2019-05-23T09:30:26.250Z,96544.00
2019-05-23T09:31:26.228Z,98208.00
2019-05-23T09:32:26.226Z,97376.00
2019-05-23T09:33:26.208Z,98720.00
2019-05-23T09:34:26.213Z,99072.00
2019-05-23T09:35:26.186Z,99232.00
2019-05-23T09:36:26.199Z,95808.00
2019-05-23T09:37:26.180Z,101248.00
2019-05-23T09:38:26.171Z,99072.00
2019-05-23T09:39:26.178Z,98976.00
2019-05-23T09:40:26.141Z,93376.00
2019-05-23T09:41:26.131Z,94432.00
2019-05-23T09:42:26.139Z,84224.00
2019-05-23T09:43:26.108Z,86656.00
2019-05-23T09:44:26.124Z,88800.00
2019-05-23T09:45:26.104Z,92704.00
2019-05-23T09:46:26.084Z,99680.00
2019-05-23T09:47:26.197Z,99488.00
2019-05-23T09:48:26.074Z,97792.00
2019-05-23T09:49:26.085Z,104384.00
2019-05-23T09:50:26.080Z,102976.00
2019-05-23T09:51:26.066Z,103328.00
2019-05-23T09:52:26.030Z,102912.00
2019-05-23T09:53:26.031Z,103264.00
2019-05-23T09:54:26.005Z,102304.00
2019-05-23T09:55:26.015Z,103680.00
2019-05-23T09:56:26.005Z,104416.00
2019-05-23T09:57:26.016Z,102688.00
2019-05-23T09:58:25.982Z,104224.00
2019-05-23T09:59:25.981Z,104448.00
2019-05-23T10:00:25.977Z,108960.00
2019-05-23T10:01:25.952Z,111904.00
2019-05-23T10:02:25.939Z,114976.00
2019-05-23T10:03:25.947Z,114304.00
2019-05-23T10:04:25.925Z,108608.00
2019-05-23T10:05:41.988Z,102784.00
2019-05-23T10:06:26.907Z,96448.00
2019-05-23T10:07:25.892Z,100128.00
2019-05-23T10:08:25.892Z,104416.00
2019-05-23T10:09:25.879Z,109792.00
2019-05-23T10:10:25.876Z,108384.00
2019-05-23T10:11:25.880Z,110144.00
2019-05-23T10:12:25.851Z,105952.00
2019-05-23T10:13:38.383Z,104992.00
2019-05-23T10:14:26.831Z,102688.00
2019-05-23T10:15:25.834Z,102112.00
2019-05-23T10:16:25.828Z,105216.00
2019-05-23T10:17:25.865Z,105504.00
2019-05-23T10:18:25.788Z,107808.00
2019-05-23T10:19:25.803Z,104224.00
2019-05-23T10:20:25.780Z,104672.00
2019-05-23T10:21:25.783Z,101696.00
2019-05-23T10:22:25.767Z,102944.00
2019-05-23T10:23:25.761Z,101088.00
2019-05-23T10:24:25.739Z,101856.00
2019-05-23T10:25:25.736Z,100992.00
2019-05-23T10:26:25.736Z,100704.00
2019-05-23T10:27:25.724Z,100544.00
2019-05-23T10:28:25.729Z,99328.00
2019-05-23T10:29:25.700Z,98336.00
2019-05-23T10:30:25.707Z,97440.00
2019-05-23T10:31:25.685Z,96288.00
2019-05-23T10:32:25.672Z,98240.00
2019-05-23T10:33:25.681Z,96480.00
2019-05-23T10:34:25.663Z,96864.00
2019-05-23T10:35:25.648Z,96672.00
2019-05-23T10:36:25.636Z,95456.00
2019-05-23T10:37:25.646Z,94496.00
2019-05-23T10:38:29.126Z,96224.00
2019-05-23T10:39:25.726Z,98400.00
2019-05-23T10:40:25.610Z,97824.00
2019-05-23T10:41:25.611Z,95456.00
2019-05-23T10:42:25.598Z,94752.00
2019-05-23T10:43:25.583Z,94976.00
2019-05-23T10:44:25.569Z,94304.00
2019-05-23T10:45:25.570Z,93088.00
2019-05-23T10:46:25.542Z,91072.00
2019-05-23T10:47:25.547Z,93056.00
2019-05-23T10:48:25.531Z,87232.00
2019-05-23T10:49:25.523Z,88672.00
2019-05-23T10:50:25.507Z,88384.00
2019-05-23T10:51:25.497Z,86304.00
2019-05-23T10:52:25.513Z,84096.00
2019-05-23T10:53:25.489Z,87584.00
2019-05-23T10:54:25.482Z,87552.00
2019-05-23T10:55:25.487Z,89952.00
2019-05-23T10:56:25.457Z,90240.00
2019-05-23T10:57:25.445Z,88448.00
2019-05-23T10:58:25.434Z,86496.00
2019-05-23T10:59:25.424Z,87136.00
2019-05-23T11:00:25.451Z,86240.00
2019-05-23T11:01:25.409Z,84384.00
2019-05-23T11:02:27.063Z,74752.00
2019-05-23T11:03:25.418Z,80384.00
2019-05-23T11:04:25.381Z,75488.00
2019-05-23T11:05:25.374Z,73280.00
2019-05-23T11:06:25.381Z,72832.00
2019-05-23T11:07:25.367Z,80896.00
2019-05-23T11:08:29.120Z,77600.00
2019-05-23T11:09:37.420Z,74976.00
2019-05-23T11:10:26.351Z,75648.00
2019-05-23T11:11:25.354Z,78720.00
2019-05-23T11:12:25.316Z,80800.00
2019-05-23T11:13:25.319Z,80736.00
2019-05-23T11:14:25.326Z,79680.00
2019-05-23T11:15:25.371Z,80064.00
2019-05-23T11:16:25.286Z,81024.00
2019-05-23T11:17:25.270Z,79360.00
2019-05-23T11:18:25.257Z,77824.00
2019-05-23T11:19:25.247Z,78272.00
2019-05-23T11:20:25.254Z,79808.00
2019-05-23T11:21:25.275Z,79520.00
2019-05-23T11:22:25.212Z,81696.00
2019-05-23T11:23:25.206Z,80640.00
2019-05-23T11:24:25.197Z,82400.00
2019-05-23T11:25:25.211Z,81568.00
2019-05-23T11:26:25.202Z,83040.00
2019-05-23T11:27:25.178Z,84288.00
2019-05-23T11:28:25.159Z,84000.00
2019-05-23T11:29:27.459Z,83040.00
2019-05-23T11:30:25.142Z,82624.00
2019-05-23T11:31:25.130Z,82848.00
2019-05-23T11:32:25.150Z,82656.00
2019-05-23T11:33:25.120Z,85568.00
2019-05-23T11:34:25.126Z,88000.00
2019-05-23T11:35:25.105Z,86240.00
2019-05-23T11:36:35.465Z,84896.00
2019-05-23T11:37:26.273Z,81568.00
2019-05-23T11:38:25.083Z,84128.00
2019-05-23T11:39:25.273Z,85728.00
2019-05-23T11:40:25.041Z,87136.00
2019-05-23T11:41:25.114Z,85152.00
2019-05-23T11:42:25.046Z,84512.00
2019-05-23T11:43:25.028Z,80704.00
2019-05-23T11:44:25.022Z,81792.00
2019-05-23T11:45:25.011Z,80832.00
2019-05-23T11:46:24.993Z,80032.00
2019-05-23T11:47:24.996Z,75936.00
2019-05-23T11:48:24.994Z,74368.00
2019-05-23T11:49:24.964Z,71072.00
2019-05-23T11:50:24.949Z,70208.00
2019-05-23T11:51:25.962Z,67744.00
2019-05-23T11:52:24.935Z,64512.00
2019-05-23T11:53:25.198Z,62944.00
2019-05-23T11:54:24.899Z,63840.00
2019-05-23T11:55:24.901Z,63456.00
2019-05-23T11:56:24.906Z,60896.00
2019-05-23T11:57:24.909Z,59648.00
2019-05-23T11:58:24.890Z,60320.00
2019-05-23T11:59:24.867Z,60832.00
2019-05-23T12:00:24.877Z,63872.00
2019-05-23T12:01:24.842Z,64960.00
2019-05-23T12:02:24.831Z,60992.00
2019-05-23T12:03:24.845Z,59104.00
2019-05-23T12:04:24.829Z,60224.00
2019-05-23T12:05:24.884Z,61888.00
2019-05-23T12:06:26.253Z,63456.00
2019-05-23T12:07:25.611Z,61888.00